Time;durP1;ratioP1;P1;durP2;ratioP2;P2;SDS_P1;SDS_P2;PMS_P1;PMS_P2;Temp;Humidity;BMP_temperature;BMP_pressure;BME280_temperature;BME280_humidity;BME280_pressure;Samples;Min_cycle;Max_cycle;Signal;HPM_P1;HPM_P2
2023/01/13 00:03:32;;;;;;;2.03;0.40;;;;;;;19.00;41.27;100421.69;16128575;19;129460;-58
2023/01/13 00:08:54;;;;;;;3.67;0.55;;;;;;;18.98;41.26;100426.66;16127119;19;128971;-59
2023/01/13 00:14:17;;;;;;;2.22;0.50;;;;;;;18.95;41.26;100426.34;16128449;19;130720;-58
2023/01/13 00:19:41;;;;;;;2.00;0.40;;;;;;;18.91;41.09;100417.72;16124262;19;129291;-59
2023/01/13 00:25:05;;;;;;;2.22;0.52;;;;;;;18.89;40.76;100419.91;16125443;19;132002;-58
2023/01/13 00:30:27;;;;;;;2.63;0.68;;;;;;;18.88;41.17;100393.28;16124823;19;129856;-59
2023/01/13 00:35:56;;;;;;;2.15;0.60;;;;;;;18.87;41.16;100400.78;16126625;19;129559;-59
2023/01/13 00:41:23;;;;;;;3.22;0.68;;;;;;;18.83;40.65;100387.72;16126328;19;130447;-58
2023/01/13 00:46:45;;;;;;;4.60;1.27;;;;;;;18.80;40.84;100388.22;16129046;19;129614;-58
2023/01/13 00:52:06;;;;;;;4.32;0.75;;;;;;;18.77;41.12;100409.81;16124130;19;129655;-59
2023/01/13 00:57:28;;;;;;;3.45;0.55;;;;;;;18.76;40.77;100407.31;16124731;19;130181;-58
2023/01/13 01:02:50;;;;;;;3.70;0.73;;;;;;;18.73;40.67;100391.19;16129307;19;130227;-58
2023/01/13 01:08:11;;;;;;;4.20;0.75;;;;;;;18.71;40.87;100402.53;16128294;19;129869;-59
2023/01/13 01:13:34;;;;;;;3.10;0.82;;;;;;;18.70;40.61;100397.25;16125403;19;129011;-58
2023/01/13 01:18:57;;;;;;;4.93;1.10;;;;;;;18.68;40.45;100403.06;16129126;19;129468;-58
2023/01/13 01:24:18;;;;;;;2.38;0.70;;;;;;;18.67;40.86;100398.63;16128252;19;129794;-58
2023/01/13 01:29:40;;;;;;;2.95;0.70;;;;;;;18.64;40.38;100393.59;16125820;19;129740;-58
2023/01/13 01:35:03;;;;;;;4.10;0.82;;;;;;;18.61;40.83;100407.94;16124495;19;129532;-58
2023/01/13 01:40:26;;;;;;;3.53;1.10;;;;;;;18.60;40.78;100411.81;16122256;19;129652;-58
2023/01/13 01:45:51;;;;;;;4.00;0.90;;;;;;;18.57;40.60;100402.09;16144572;19;129850;-58
2023/01/13 01:51:13;;;;;;;4.33;1.13;;;;;;;18.56;40.37;100396.81;16156284;19;129761;-58
2023/01/13 01:56:36;;;;;;;5.55;0.90;;;;;;;18.55;40.76;100392.38;16155939;19;129856;-58
2023/01/13 02:01:58;;;;;;;3.22;0.90;;;;;;;18.52;40.32;100388.22;16153587;19;129820;-58
2023/01/13 02:07:24;;;;;;;8.32;1.52;;;;;;;18.51;40.55;100385.66;16151369;19;129724;-58
2023/01/13 02:12:47;;;;;;;4.85;1.00;;;;;;;18.49;40.29;100388.72;16154399;19;130346;-58
2023/01/13 02:18:15;;;;;;;4.75;0.98;;;;;;;18.48;40.58;100398.13;16150461;19;129755;-58
2023/01/13 02:35:54;;;;;;;4.22;1.00;;;;;;;18.44;40.39;100374.78;16153415;19;129499;-58
2023/01/13 02:47:15;;;;;;;4.38;1.15;;;;;;;18.40;40.19;100380.00;16150982;19;129504;-58
2023/01/13 02:52:42;;;;;;;3.13;1.10;;;;;;;18.38;40.08;100396.03;16152993;19;129995;-59
2023/01/13 02:58:08;;;;;;;3.78;0.90;;;;;;;18.37;40.45;100390.75;16138627;19;129542;-58
2023/01/13 03:03:30;;;;;;;5.28;1.20;;;;;;;18.35;40.09;100401.25;16132686;19;129028;-58
2023/01/13 03:08:57;;;;;;;4.15;1.05;;;;;;;18.35;40.09;100404.00;16133602;19;130337;-58
2023/01/13 03:14:47;;;;;;;3.40;1.10;;;;;;;18.34;40.28;100414.22;16132424;19;133273;-59
2023/01/13 03:20:20;;;;;;;5.35;1.30;;;;;;;18.33;39.97;100415.34;16132241;19;129292;-58
2023/01/13 03:25:53;;;;;;;4.25;0.93;;;;;;;18.32;40.01;100421.97;16131848;19;130455;-58
2023/01/13 03:31:27;;;;;;;4.68;1.05;;;;;;;18.30;40.23;100407.56;16130806;19;129477;-58
2023/01/13 03:36:53;;;;;;;5.60;1.30;;;;;;;18.29;39.84;100394.81;16131638;19;130522;-57
2023/01/13 03:42:22;;;;;;;4.05;1.00;;;;;;;18.26;40.12;100364.84;16130402;19;130249;-59
2023/01/13 03:47:54;;;;;;;5.32;1.38;;;;;;;18.24;39.87;100384.50;16135081;19;134830;-57
2023/01/13 03:53:26;;;;;;;3.75;1.00;;;;;;;18.24;40.01;100380.88;16126827;19;129455;-58
2023/01/13 03:58:51;;;;;;;3.72;0.90;;;;;;;18.23;39.84;100373.66;16127066;19;129943;-58
2023/01/13 04:04:25;;;;;;;5.03;1.20;;;;;;;18.23;39.84;100368.13;16122587;19;129708;-59
2023/01/13 04:09:51;;;;;;;2.67;0.90;;;;;;;18.21;39.70;100373.09;16125804;19;129445;-58
2023/01/13 04:15:16;;;;;;;4.93;1.13;;;;;;;18.20;39.75;100368.66;16126812;19;129736;-58
2023/01/13 04:20:38;;;;;;;4.13;1.27;;;;;;;18.20;39.99;100374.19;16127537;19;130794;-61
2023/01/13 04:26:00;;;;;;;5.35;1.15;;;;;;;18.18;39.81;100370.84;16127392;19;129364;-58
2023/01/13 04:31:22;;;;;;;4.30;1.00;;;;;;;18.15;39.59;100367.50;16127491;19;129922;-61
2023/01/13 04:36:44;;;;;;;3.92;1.08;;;;;;;18.15;39.92;100373.03;16128464;19;130821;-58
2023/01/13 04:42:06;;;;;;;8.65;1.30;;;;;;;18.13;39.60;100383.50;16127680;19;129341;-58
2023/01/13 04:47:27;;;;;;;4.63;1.20;;;;;;;18.13;39.84;100391.00;16126291;19;130201;-58
2023/01/13 04:52:50;;;;;;;3.20;0.90;;;;;;;18.12;39.89;100392.09;16128237;19;131872;-58
2023/01/13 04:58:12;;;;;;;3.47;0.90;;;;;;;18.11;39.61;100398.72;16124478;19;129979;-58
2023/01/13 05:03:33;;;;;;;2.65;0.85;;;;;;;18.11;39.92;100393.19;16121596;19;130577;-58
2023/01/13 05:08:56;;;;;;;4.50;1.38;;;;;;;18.09;39.73;100389.81;16123068;19;129475;-58
2023/01/13 05:19:58;;;;;;;2.83;0.85;;;;;;;18.07;39.81;100387.31;16122180;19;129491;-58
2023/01/13 05:25:20;;;;;;;4.90;1.00;;;;;;;18.07;39.38;100401.16;16122031;19;129286;-57
2023/01/13 05:30:45;;;;;;;3.03;1.00;;;;;;;18.07;39.16;100401.16;16123303;19;130890;-58
2023/01/13 05:36:07;;;;;;;4.82;1.00;;;;;;;18.06;39.50;100407.78;16123570;19;129421;-58
2023/01/13 05:47:09;;;;;;;4.40;1.08;;;;;;;18.03;39.47;100413.81;16125048;19;129718;-57
2023/01/13 05:52:31;;;;;;;3.90;1.02;;;;;;;18.02;39.76;100417.69;16122762;19;130078;-57
2023/01/13 05:57:53;;;;;;;3.15;0.85;;;;;;;18.02;39.66;100425.16;16118532;19;129574;-58
2023/01/13 06:03:15;;;;;;;2.92;0.85;;;;;;;18.01;39.50;100427.06;16119592;19;130288;-59
2023/01/13 06:08:36;;;;;;;4.90;1.20;;;;;;;18.04;39.13;100421.03;16121600;19;129523;-58
2023/01/13 06:14:00;;;;;;;4.38;1.05;;;;;;;18.27;38.80;100413.59;16120593;19;128977;-58
2023/01/13 06:19:22;;;;;;;4.25;0.85;;;;;;;18.60;38.29;100428.44;16117641;19;128908;-58
2023/01/13 06:24:47;;;;;;;2.38;0.80;;;;;;;18.91;37.89;100439.91;16118795;19;130266;-57
2023/01/13 06:30:09;;;;;;;9.13;1.33;;;;;;;19.16;37.88;100424.63;16119108;19;129834;-58
2023/01/13 06:35:34;;;;;;;9.38;1.45;;;;;;;19.33;36.90;100425.38;16130999;19;130278;-59
2023/01/13 06:40:56;;;;;;;6.35;1.27;;;;;;;19.52;37.12;100427.75;16134358;19;129723;-59
2023/01/13 06:46:18;;;;;;;9.98;1.17;;;;;;;19.66;36.57;100434.53;16133758;19;129943;-59
2023/01/13 06:51:39;;;;;;;10.15;1.73;;;;;;;19.68;36.65;100446.22;16132864;19;129478;-59
2023/01/13 06:57:01;;;;;;;10.73;1.70;;;;;;;19.64;36.46;100463.63;16133955;19;129706;-59
2023/01/13 07:02:23;;;;;;;11.95;1.40;;;;;;;19.56;36.91;100478.84;16134461;19;129708;-59
2023/01/13 07:07:45;;;;;;;11.48;1.58;;;;;;;19.48;36.93;100484.88;16130869;19;129138;-59
2023/01/13 07:18:47;;;;;;;8.35;1.33;;;;;;;19.29;37.37;100501.91;16133993;19;129629;-64
2023/01/13 07:24:09;;;;;;;10.30;1.08;;;;;;;19.19;37.27;100488.72;16134076;19;130011;-61
2023/01/13 07:29:31;;;;;;;12.27;1.65;;;;;;;19.11;37.32;100493.88;16129530;19;129586;-60
2023/01/13 07:34:52;;;;;;;17.13;1.70;;;;;;;19.02;37.53;100499.91;16131134;19;129420;-60
2023/01/13 07:40:14;;;;;;;8.32;1.25;;;;;;;18.97;37.44;100494.28;16128948;19;130104;-59
2023/01/13 07:45:36;;;;;;;12.55;1.52;;;;;;;19.02;37.37;100497.13;16130617;19;130248;-57
2023/01/13 07:51:03;;;;;;;12.80;1.45;;;;;;;19.29;37.17;100503.81;16127149;19;129604;-59
2023/01/13 07:56:25;;;;;;;7.68;1.70;;;;;;;19.56;36.71;100505.75;16127231;19;129387;-57
2023/01/13 08:01:47;;;;;;;7.22;1.20;;;;;;;19.84;36.60;100521.25;16128465;19;129449;-57
2023/01/13 08:07:09;;;;;;;8.13;1.27;;;;;;;20.08;36.13;100518.16;16128603;19;129865;-57
2023/01/13 08:18:18;;;;;;;11.15;1.70;;;;;;;20.48;35.62;100538.16;16121718;19;129905;-57
2023/01/13 08:23:41;;;;;;;16.07;1.67;;;;;;;20.61;35.17;100532.13;16128997;19;130062;-58
2023/01/13 08:29:03;;;;;;;13.52;2.00;;;;;;;20.74;34.74;100556.63;16125937;19;129604;-59
2023/01/13 08:34:25;;;;;;;10.95;1.90;;;;;;;20.84;34.61;100553.09;16124003;19;129286;-57
2023/01/13 08:39:47;;;;;;;9.70;1.92;;;;;;;20.92;34.72;100560.09;16125723;19;129587;-58
2023/01/13 08:45:09;;;;;;;8.77;2.00;;;;;;;20.95;34.53;100587.38;16124157;19;129852;-58
2023/01/13 08:50:31;;;;;;;14.10;1.98;;;;;;;20.92;34.27;100570.41;16123269;19;130231;-59
2023/01/13 08:55:53;;;;;;;14.32;2.72;;;;;;;20.84;33.95;100564.22;16120022;19;128821;-58
2023/01/13 09:01:21;;;;;;;13.65;2.40;;;;;;;20.73;34.33;100573.59;16122805;19;129420;-56
2023/01/13 09:06:43;;;;;;;10.98;1.92;;;;;;;20.54;34.06;100576.81;16124359;19;129873;-58
2023/01/13 09:17:47;;;;;;;10.82;2.80;;;;;;;20.27;34.11;100583.31;16126023;19;130007;-58
2023/01/13 09:23:08;;;;;;;9.20;1.90;;;;;;;20.16;34.33;100587.09;16122948;19;130303;-58
2023/01/13 09:28:32;;;;;;;8.88;1.98;;;;;;;20.05;34.67;100590.91;16118330;19;130454;-55
2023/01/13 09:39:35;;;;;;;9.45;2.58;;;;;;;19.84;34.98;100585.09;16123757;19;130644;-58
2023/01/13 09:45:10;;;;;;;10.32;2.67;;;;;;;19.77;34.94;100601.16;16122611;19;129477;-58
2023/01/13 09:50:54;;;;;;;10.32;2.70;;;;;;;19.68;35.06;100604.41;16121817;19;129940;-57
2023/01/13 09:56:16;;;;;;;11.40;2.22;;;;;;;19.64;35.22;100614.34;16120263;19;128893;-58
2023/01/13 10:01:52;;;;;;;11.52;2.15;;;;;;;19.62;35.05;100624.84;16121151;19;129489;-58
2023/01/13 10:07:14;;;;;;;16.98;2.22;;;;;;;19.60;35.34;100623.44;16129413;19;129499;-59
2023/01/13 10:18:35;;;;;;;10.20;1.88;;;;;;;19.56;35.02;100639.78;16133621;19;130028;-57
2023/01/13 10:24:13;;;;;;;18.02;2.65;;;;;;;19.65;34.97;100637.38;16133041;19;129714;-56
2023/01/13 10:29:35;;;;;;;10.95;2.22;;;;;;;19.75;34.91;100640.28;16137777;19;130063;-57
2023/01/13 10:34:57;;;;;;;12.70;2.03;;;;;;;19.83;34.56;100647.28;16132549;19;129800;-57
2023/01/13 10:40:19;;;;;;;8.52;2.17;;;;;;;19.87;34.37;100659.53;16132011;19;129531;-59
2023/01/13 10:46:00;;;;;;;10.18;2.40;;;;;;;19.89;34.46;100676.78;16132999;19;129964;-56
2023/01/13 10:51:25;;;;;;;11.85;2.65;;;;;;;19.90;34.53;100677.59;16133268;19;130392;-57
2023/01/13 10:56:49;;;;;;;12.50;2.40;;;;;;;19.93;34.42;100682.66;16130661;19;129539;-58
2023/01/13 11:02:16;;;;;;;10.85;2.42;;;;;;;20.00;34.50;100688.84;16124622;19;132770;-57
2023/01/13 11:07:51;;;;;;;10.38;2.10;;;;;;;20.07;34.43;100688.63;16122403;19;129406;-55
2023/01/13 11:13:17;;;;;;;11.45;2.13;;;;;;;20.13;34.82;100691.22;16126578;19;129718;-57
2023/01/13 11:19:01;;;;;;;15.07;2.47;;;;;;;20.19;34.65;100705.16;16128307;19;134889;-59
2023/01/13 11:24:35;;;;;;;14.75;2.28;;;;;;;20.23;34.30;100709.91;16129118;19;129903;-57
2023/01/13 11:30:16;;;;;;;24.50;2.53;;;;;;;20.26;34.65;100717.75;16128131;19;129322;-58
2023/01/13 11:35:46;;;;;;;19.52;2.78;;;;;;;20.29;34.38;100724.69;16130335;19;129481;-57
2023/01/13 11:41:40;;;;;;;18.90;2.90;;;;;;;20.28;34.04;100723.88;16128915;19;129697;-57
2023/01/13 11:47:02;;;;;;;14.73;2.45;;;;;;;20.24;34.34;100744.13;16128981;19;129781;-57
2023/01/13 11:52:30;;;;;;;15.63;2.60;;;;;;;20.22;34.38;100735.19;16128141;19;135887;-57
2023/01/13 11:57:58;;;;;;;8.63;2.05;;;;;;;20.18;34.54;100743.22;16126557;19;129241;-56
2023/01/13 12:03:34;;;;;;;13.75;2.15;;;;;;;20.15;34.72;100740.97;16128469;19;129300;-56
2023/01/13 12:09:10;;;;;;;13.30;2.60;;;;;;;20.11;34.63;100735.09;16129321;19;130094;-57
2023/01/13 12:14:50;;;;;;;;;;;;;;;20.04;34.92;100750.28;16126863;19;129432;-56
2023/01/13 12:20:42;;;;;;;13.60;2.22;;;;;;;20.02;34.80;100753.28;16128027;19;129233;-60
2023/01/13 12:26:09;;;;;;;15.85;2.00;;;;;;;19.95;35.00;100758.19;16128430;19;134112;-57
2023/01/13 12:31:35;;;;;;;13.65;2.42;;;;;;;19.93;35.05;100760.38;16125213;19;129305;-55
2023/01/13 12:37:17;;;;;;;12.45;2.38;;;;;;;19.90;35.22;100758.97;16128095;19;129092;-54
2023/01/13 12:48:56;;;;;;;;;;;;;;;19.79;35.17;100768.28;16127952;19;129395;-55
2023/01/13 12:54:29;;;;;;;11.30;2.10;;;;;;;19.84;35.19;100776.66;16126922;19;131088;-56
2023/01/13 13:00:03;;;;;;;9.18;2.10;;;;;;;19.88;35.42;100786.16;16124769;19;129675;-56
2023/01/13 13:05:33;;;;;;;9.23;2.10;;;;;;;19.94;35.56;100804.53;16123217;19;129684;-56
2023/01/13 13:16:53;;;;;;;7.97;1.83;;;;;;;20.07;34.90;100833.91;16122527;19;129084;-56
2023/01/13 13:22:19;;;;;;;11.60;2.35;;;;;;;20.14;34.92;100839.25;16122353;19;130811;-56
2023/01/13 13:28:11;;;;;;;8.18;1.98;;;;;;;20.22;34.94;100851.84;16125155;19;129605;-56
2023/01/13 13:33:45;;;;;;;7.35;1.60;;;;;;;20.28;34.59;100857.22;16120882;19;129955;-56
2023/01/13 13:51:23;;;;;;;9.68;2.00;;;;;;;20.30;34.13;100890.28;16122865;19;129471;-58
2023/01/13 13:56:49;;;;;;;6.63;1.70;;;;;;;20.29;34.07;100897.78;16120921;19;128963;-58
2023/01/13 14:02:31;;;;;;;5.93;1.67;;;;;;;20.29;34.29;100900.56;16121116;19;129297;-56
2023/01/13 14:08:06;;;;;;;8.80;2.00;;;;;;;20.27;33.97;100936.09;16121835;19;129678;-58
2023/01/13 14:13:30;;;;;;;6.60;2.20;;;;;;;20.23;34.08;100932.16;16120819;19;129629;-58
2023/01/13 14:18:52;;;;;;;6.72;1.73;;;;;;;20.21;34.42;100927.94;16120341;19;129442;-58
2023/01/13 14:24:16;;;;;;;16.33;2.67;;;;;;;20.17;34.16;100935.97;16118555;19;129437;-58
2023/01/13 14:29:38;;;;;;;20.27;6.97;;;;;;;20.18;34.24;100945.13;16118919;19;129447;-58
2023/01/13 14:35:00;;;;;;;26.55;8.82;;;;;;;20.18;34.46;100954.31;16118349;19;129762;-58
2023/01/13 14:40:41;;;;;;;44.05;21.73;;;;;;;20.19;34.95;100958.75;16116798;19;130170;-58
2023/01/13 14:46:03;;;;;;;63.17;31.25;;;;;;;20.19;34.75;100963.47;16116654;19;129915;-59
2023/01/13 14:51:27;;;;;;;58.20;29.35;;;;;;;20.20;34.93;100966.00;16118080;19;129458;-61
2023/01/13 14:56:50;;;;;;;46.38;22.38;;;;;;;20.14;35.25;100970.63;16130869;19;130060;-57
2023/01/13 15:02:24;;;;;;;35.90;15.88;;;;;;;20.11;35.98;100984.19;16129537;19;129815;-54
2023/01/13 15:07:51;;;;;;;36.70;12.82;;;;;;;20.05;37.06;101004.66;16131845;19;129671;-53
2023/01/13 15:13:28;;;;;;;43.45;21.73;;;;;;;20.05;37.82;101013.00;16129122;19;129967;-53
2023/01/13 15:18:51;;;;;;;65.40;28.50;;;;;;;20.02;38.48;101013.50;16129461;19;129524;-56
2023/01/13 15:24:12;;;;;;;60.70;27.65;;;;;;;20.03;39.11;101015.19;16127985;19;129432;-57
2023/01/13 15:29:34;;;;;;;61.25;28.83;;;;;;;20.06;39.76;101037.72;16127812;19;132902;-58
2023/01/13 15:34:56;;;;;;;59.30;28.48;;;;;;;20.10;40.31;101046.38;16128359;19;129401;-57
2023/01/13 15:40:20;;;;;;;66.85;27.88;;;;;;;20.12;40.19;101058.91;16126166;19;131402;-55
2023/01/13 15:51:23;;;;;;;145.10;71.82;;;;;;;20.14;40.70;101069.78;16126681;19;129395;-57
2023/01/13 15:56:45;;;;;;;124.53;58.03;;;;;;;20.17;41.27;101082.31;16128361;19;129382;-56
2023/01/13 16:02:13;;;;;;;98.38;45.45;;;;;;;20.16;41.43;101087.06;16124784;19;130631;-60
2023/01/13 16:07:35;;;;;;;82.15;36.25;;;;;;;20.14;41.49;101100.34;16136012;19;129659;-56
2023/01/13 16:12:57;;;;;;;56.65;27.02;;;;;;;20.15;41.15;101102.03;16129897;19;129429;-58
2023/01/13 16:18:23;;;;;;;50.38;21.45;;;;;;;20.12;40.74;101117.25;16128297;19;134107;-58
2023/01/13 16:23:45;;;;;;;;;;;;;;;20.06;40.77;101129.38;16126786;19;129919;-57
2023/01/13 16:29:11;;;;;;;34.53;15.75;;;;;;;20.07;40.77;101127.44;16126467;19;129666;-54
2023/01/13 16:34:33;;;;;;;33.05;13.55;;;;;;;20.06;40.65;101131.31;16122790;19;129821;-57
2023/01/13 16:39:55;;;;;;;28.77;11.88;;;;;;;20.05;40.89;101137.97;16126600;19;129700;-56
2023/01/13 16:45:17;;;;;;;25.95;9.85;;;;;;;20.05;41.34;101146.31;16122689;19;129467;-56
2023/01/13 16:50:41;;;;;;;21.13;8.93;;;;;;;20.05;40.83;101162.97;16123976;19;130146;-57
2023/01/13 16:56:10;;;;;;;23.08;9.23;;;;;;;20.04;41.34;101159.34;16123797;19;130104;-53
2023/01/13 17:01:34;;;;;;;18.83;7.65;;;;;;;20.06;41.74;101173.00;16121423;19;129606;-54
2023/01/13 17:06:59;;;;;;;22.75;7.28;;;;;;;20.07;41.45;101178.28;16124786;19;130249;-56
2023/01/13 17:12:21;;;;;;;17.52;6.18;;;;;;;20.07;41.60;101196.84;16122476;19;130059;-57
2023/01/13 17:17:46;;;;;;;19.35;5.50;;;;;;;20.09;42.22;101197.47;16121536;19;129938;-56
2023/01/13 17:23:08;;;;;;;12.73;4.97;;;;;;;20.10;42.09;101215.81;16120352;19;130200;-56
2023/01/13 17:28:30;;;;;;;13.38;4.68;;;;;;;20.10;42.42;101222.22;16119842;19;129995;-57
2023/01/13 17:33:52;;;;;;;13.02;4.80;;;;;;;20.12;42.31;101221.97;16119569;19;129733;-57
2023/01/13 17:39:19;;;;;;;10.85;3.70;;;;;;;20.12;42.18;101220.03;16121077;19;129601;-56
2023/01/13 17:44:41;;;;;;;12.88;4.45;;;;;;;20.14;42.37;101239.22;16118071;19;129246;-56
2023/01/13 17:50:04;;;;;;;14.68;3.63;;;;;;;20.18;42.28;101240.44;16118221;19;129646;-51
2023/01/13 17:55:25;;;;;;;19.25;3.25;;;;;;;20.22;42.31;101244.38;16117040;19;129898;-55
2023/01/13 18:00:48;;;;;;;13.63;3.30;;;;;;;20.28;42.04;101259.19;16118366;19;129719;-55
2023/01/13 18:06:16;;;;;;;9.80;3.33;;;;;;;20.31;42.49;101269.00;16120230;19;129481;-53
2023/01/13 18:11:38;;;;;;;13.13;2.97;;;;;;;20.32;42.31;101270.66;16123922;19;129878;-53
2023/01/13 18:17:00;;;;;;;12.15;2.85;;;;;;;20.33;42.53;101283.44;16116037;19;129697;-51
2023/01/13 18:28:05;;;;;;;10.02;2.97;;;;;;;20.24;42.25;101283.88;16122989;19;130426;-54
2023/01/13 18:33:27;;;;;;;11.18;2.55;;;;;;;20.22;42.43;101294.38;16133729;19;129714;-54
2023/01/13 18:38:49;;;;;;;7.38;2.15;;;;;;;20.20;42.25;101296.56;16139537;19;130067;-54
2023/01/13 18:44:11;;;;;;;10.30;2.80;;;;;;;20.19;42.04;101314.31;16135588;19;129489;-53
2023/01/13 18:49:33;;;;;;;9.57;2.10;;;;;;;20.17;42.17;101302.63;16134242;19;130441;-53
2023/01/13 18:54:54;;;;;;;6.55;2.38;;;;;;;20.15;42.12;101313.13;16133937;19;129440;-54
2023/01/13 19:00:19;;;;;;;6.95;2.00;;;;;;;20.14;42.34;101328.13;16133260;19;130578;-55
2023/01/13 19:05:40;;;;;;;8.90;2.13;;;;;;;20.12;41.98;101339.47;16136212;19;129351;-55
2023/01/13 19:11:05;;;;;;;5.72;1.90;;;;;;;20.11;41.85;101339.72;16138332;19;130345;-56
2023/01/13 19:16:27;;;;;;;7.57;1.90;;;;;;;20.09;42.29;101350.22;16133306;19;129210;-54
2023/01/13 19:21:48;;;;;;;8.18;2.53;;;;;;;20.08;41.68;101337.41;16130746;19;129649;-53
2023/01/13 19:27:13;;;;;;;6.13;1.88;;;;;;;20.08;41.97;101351.31;16132393;19;130716;-51
2023/01/13 19:32:35;;;;;;;7.30;1.98;;;;;;;20.07;41.97;101346.84;16129731;19;129742;-53
2023/01/13 19:37:56;;;;;;;5.55;1.92;;;;;;;20.06;41.75;101342.41;16128898;19;129424;-53
2023/01/13 19:48:59;;;;;;;8.00;1.60;;;;;;;20.03;41.54;101354.00;16129150;19;129688;-52
2023/01/13 19:54:21;;;;;;;7.43;1.90;;;;;;;20.03;41.58;101360.38;16126708;19;129685;-51
2023/01/13 19:59:43;;;;;;;6.22;1.70;;;;;;;20.03;41.17;101370.66;16129837;19;130936;-53
2023/01/13 20:05:06;;;;;;;6.45;1.98;;;;;;;20.03;41.50;101371.50;16128549;19;130231;-55
2023/01/13 20:10:31;;;;;;;4.97;1.60;;;;;;;20.02;41.13;101377.31;16127055;19;129296;-56
2023/01/13 20:15:53;;;;;;;7.33;1.60;;;;;;;20.01;40.94;101395.06;16129430;19;129570;-54
2023/01/13 20:21:15;;;;;;;6.50;1.60;;;;;;;20.01;41.21;101395.06;16127079;19;129648;-56
2023/01/13 20:26:38;;;;;;;7.82;2.10;;;;;;;20.01;41.17;101401.44;16125867;19;129478;-61
2023/01/13 20:32:00;;;;;;;6.13;1.75;;;;;;;20.05;40.90;101407.38;16127972;19;129698;-55
2023/01/13 20:37:22;;;;;;;7.40;1.98;;;;;;;20.08;40.63;101404.09;16126764;19;129601;-58
2023/01/13 20:42:45;;;;;;;6.47;1.88;;;;;;;20.10;40.97;101405.53;16126475;19;129505;-47
2023/01/13 20:48:06;;;;;;;13.18;2.72;;;;;;;20.13;40.90;101420.88;16128325;19;131178;-47
2023/01/13 20:53:28;;;;;;;14.90;2.15;;;;;;;20.13;40.44;101421.69;16121643;19;129703;-49
2023/01/13 20:58:50;;;;;;;11.15;2.67;;;;;;;20.14;40.70;101425.34;16123196;19;129370;-48
2023/01/13 21:04:12;;;;;;;10.60;2.17;;;;;;;20.17;40.64;101427.63;16123579;19;129066;-47
2023/01/13 21:09:34;;;;;;;13.38;2.17;;;;;;;20.20;40.89;101435.47;16122352;19;130385;-48
2023/01/13 21:20:38;;;;;;;9.77;2.00;;;;;;;20.25;40.95;101441.13;16121659;19;128882;-51
2023/01/13 21:25:59;;;;;;;9.63;2.03;;;;;;;20.29;40.58;101444.25;16120421;19;131282;-48
2023/01/13 21:31:21;;;;;;;9.90;2.08;;;;;;;20.31;40.79;101444.03;16119600;19;129584;-52
2023/01/13 21:36:43;;;;;;;8.30;2.10;;;;;;;20.31;40.78;101447.66;16121608;19;130238;-44
2023/01/13 21:47:49;;;;;;;10.35;1.85;;;;;;;20.25;40.81;101446.69;16122076;19;130143;-45
2023/01/13 21:53:11;;;;;;;10.30;2.40;;;;;;;20.20;40.77;101454.06;16121263;19;130840;-48
2023/01/13 21:58:32;;;;;;;12.07;3.08;;;;;;;20.15;41.00;101460.38;16118560;19;129601;-49
2023/01/13 22:04:12;;;;;;;10.10;1.90;;;;;;;20.11;41.05;101468.34;16131490;19;131068;-46
2023/01/13 22:09:34;;;;;;;9.70;2.10;;;;;;;20.07;41.31;101477.38;16135092;19;130548;-46
2023/01/13 22:14:56;;;;;;;8.88;2.10;;;;;;;20.04;40.88;101486.22;16133582;19;128958;-47
2023/01/13 22:20:18;;;;;;;8.40;1.80;;;;;;;20.02;41.28;101485.63;16133224;19;129898;-48
2023/01/13 22:25:40;;;;;;;7.60;1.83;;;;;;;19.99;41.25;101492.47;16134689;19;129483;-47
2023/01/13 22:31:06;;;;;;;13.90;2.30;;;;;;;19.98;40.82;101474.94;16134536;19;129374;-46
2023/01/13 22:36:28;;;;;;;10.18;1.85;;;;;;;19.91;40.79;101478.94;16132496;19;129644;-46
2023/01/13 22:41:50;;;;;;;10.30;2.03;;;;;;;19.84;41.20;101488.25;16135486;19;129887;-47
2023/01/13 22:47:12;;;;;;;11.10;2.20;;;;;;;19.80;40.84;101500.06;16132742;19;129193;-45
2023/01/13 22:52:34;;;;;;;5.47;1.90;;;;;;;19.74;41.25;101496.34;16132877;19;130061;-48
2023/01/13 22:57:56;;;;;;;7.40;2.03;;;;;;;19.67;40.84;101506.69;16135473;19;130541;-46
2023/01/13 23:03:18;;;;;;;10.20;1.73;;;;;;;19.63;40.86;101505.50;16130418;19;129292;-48
2023/01/13 23:08:40;;;;;;;7.05;1.67;;;;;;;19.57;41.02;101507.25;16133154;19;129496;-45
2023/01/13 23:14:05;;;;;;;5.53;2.08;;;;;;;19.52;41.06;101482.19;16129673;19;129961;-46
2023/01/13 23:19:26;;;;;;;6.83;1.70;;;;;;;19.47;40.81;101479.25;16130472;19;130446;-45
2023/01/13 23:24:48;;;;;;;8.40;1.92;;;;;;;19.43;41.15;101489.16;16130032;19;130396;-49
2023/01/13 23:30:10;;;;;;;7.20;1.45;;;;;;;19.38;41.17;101482.38;16128779;19;129041;-46
2023/01/13 23:35:32;;;;;;;6.05;1.30;;;;;;;19.35;41.16;101482.03;16127314;19;129648;-47
2023/01/13 23:40:54;;;;;;;3.15;1.25;;;;;;;19.32;40.97;101485.25;16130525;19;130236;-48
2023/01/13 23:46:16;;;;;;;6.82;1.63;;;;;;;19.28;40.91;101493.22;16129215;19;129560;-47
2023/01/13 23:51:38;;;;;;;6.38;1.40;;;;;;;19.25;40.67;101498.41;16128984;19;130815;-45
2023/01/13 23:57:00;;;;;;;6.82;1.98;;;;;;;19.22;40.88;101505.25;16128747;19;129470;-48
